AirNav   Air Wisconsin Airman Trainee
 
 411 users online  

T00 Chambers County Airport
Anahuac, Texas, USA

GOING TO ANAHUAC?


FAA INFORMATION EFFECTIVE 23 MAY 2019

Location

FAA Identifier: T00
Lat/Long: 29-46-11.3332N / 094-39-48.5535W
29-46.188887N / 094-39.809225W
29.7698148 / -94.6634871
(estimated)
Elevation: 21.2 ft. / 6.5 m (surveyed)
Variation: 05E (1995)
From city: 1 mile E of ANAHUAC, TX
Time zone: UTC -5 (UTC -6 during Standard Time)
Zip code: 77514

Airport Operations

Airport use: Open to the public
Activation date: 10/1978
Control tower: no
ARTCC: HOUSTON CENTER
FSS: MONTGOMERY COUNTY FLIGHT SERVICE STATION
NOTAMs facility: CXO (NOTAM-D service available)
Attendance: MON-FRI 0800-1700
Wind indicator: lighted
Segmented circle: yes
Lights: DUSK-DAWN. MIRL RY 12/30 PRESET LOW INTST; TO INCR INTST ACTVT - CTAF.
Beacon: white-green (lighted land airport)
Operates sunset to sunrise.

Airport Communications

CTAF: 122.9
HOUSTON APPROACH: 134.45 [0600-0000]
HOUSTON DEPARTURE: 134.45 [0600-0000]
BORRN DP: 134.45
DREMR DP: 134.45
INDIE DP: 134.45
KARRR DP: 134.45
LURIC DP: 134.45
MMALT DP: 134.45
STRYA DP: 134.45
STYCK DP: 134.45
WATFO DP: 134.45
WYLSN DP: 134.45

Nearby radio navigation aids

VOR radial/distance  VOR name  Freq  Var
MHFr011/14.1TRINITY VOR/DME113.6007E
DASr177/25.2DAISETTA VORTAC116.9005E
VUHr014/31.9SCHOLES VOR/DME113.0006E
HUBr073/32.7HOBBY VOR/DME117.1005E
SBIr272/33.0SABINE PASS VOR/DME115.4007E
BPTr246/35.3BEAUMONT VOR/DME114.5007E
IAHr103/37.2HUMBLE VORTAC116.6005E

 
NDB name  Hdg/Dist  Freq  Var  ID
GALVESTON002/26.620608EGLS --. .-.. ...
GOODHUE226/29.636807EGDE --. -.. .
HARDIN COUNTY208/39.952404EHRD .... .-. -..

Airport Services

Fuel available: 100LL JET-A
Parking: tiedowns
Bottled oxygen: NONE
Bulk oxygen: NONE

Runway Information

Runway 12/30

Dimensions: 3005 x 60 ft. / 916 x 18 m
Surface: asphalt, in fair condition
Weight bearing capacity: 
Single wheel: 13.0
Runway edge lights: medium intensity
Runway edge markings: MARKINGS FADED.
RUNWAY 12  RUNWAY 30
Latitude: 29-46.363987N29-46.053815N
Longitude: 094-39.966058W094-39.522763W
Elevation: 20.4 ft.20.4 ft.
Traffic pattern: leftright
Runway heading: 124 magnetic, 129 true304 magnetic, 309 true
Markings: nonprecision, in poor conditionnonprecision, in poor condition
Visual slope indicator: 2-light PAPI on left (4.00 degrees glide path)
Touchdown point: yes, no lightsyes, no lights
Obstructions: 30 ft. pole, 875 ft. from runway, 171 ft. left of centerline, 22:1 slope to clear15 ft. road, 530 ft. from runway, 280 ft. left of centerline, 22:1 slope to clear

Runway 17/35

Dimensions: 1900 x 300 ft. / 579 x 91 m
Surface: turf, in good condition
RUNWAY 17  RUNWAY 35
Latitude: 29-46.313965N29-46.000500N
Longitude: 094-39.911733W094-39.911733W
Elevation: 20.0 ft.20.0 ft.
Traffic pattern: leftright
Runway heading: 175 magnetic, 180 true355 magnetic, 000 true
Markings: none, in good conditionnone, in good condition
Touchdown point: yes, no lightsyes, no lights
Obstructions: 56 ft. trees, 852 ft. from runway, 119 ft. left of centerline, 15:1 slope to clear15 ft. road, 230 ft. from runway, 15:1 slope to clear

Airport Ownership and Management from official FAA records

Ownership: Publicly-owned
Owner: CHAMBERS COUNTY
PO BOX 938
ANAHUAC, TX 77514
Phone 409-267-2719
Manager: KELLY TRAHAN
PO BOX 938
ANAHUAC, TX 77514
Phone 409-267-2719

Airport Operational Statistics

Aircraft based on the field: 7
Single engine airplanes: 5
Multi engine airplanes: 1
Ultralights: 1
    
Aircraft operations: avg 46/week *
67% local general aviation
33% transient general aviation
* for 12-month period ending 28 March 2017

Additional Remarks

RWY 17/35 SOFT WHEN WET.
RWY 17/35 USE EXTREME CARE; PAPI RY 12 LOCATED NORTH LIMITS OF TURF RWY.
FOR CD CTC HOUSTON APCH AT 281-443-5844 TO CNL IFR CALL 281-443-5888.
TAXIWAY BRAVO HAS A POT HOLE AND BROKEN ASPHALT.

Instrument Procedures

NOTE: All procedures below are presented as PDF files. If you need a reader for these files, you should download the free Adobe Reader.

NOT FOR NAVIGATION. Please procure official charts for flight.
FAA instrument procedures published for use from 23 May 2019 at 0901Z to 20 June 2019 at 0900Z.

 
STARs - Standard Terminal Arrivals
BLUBELL THREE   download (296KB)
CESAN FOUR (RNAV)   2 pages: [1] [2] (362KB)
HUDZY THREE   2 pages: [1] [2] (330KB)
OHIIO FOUR   download (296KB)
TCHDN TWO   2 pages: [1] [2] (357KB)
TKNIQ TWO (RNAV)   2 pages: [1] [2] (285KB)
WAPPL FOUR (RNAV)   2 pages: [1] [2] (380KB)
WAPPL FOUR (RNAV), CONT.2   download (265KB)
 
IAPs - Instrument Approach Procedures
RNAV (GPS) RWY 12   download (166KB)
 
Departure Procedures
BLTWY SIX (RNAV) **NEW**   download (132KB)
BORRN FOUR (RNAV) **NEW**   2 pages: [1] [2] (252KB)
HOODO SIX (RNAV) **NEW**   download (180KB)
INDIE SEVEN (RNAV) **NEW**   download (156KB)
KARRR FIVE (RNAV) **NEW**   2 pages: [1] [2] (207KB)
LURIC SEVEN (RNAV) **NEW**   download (173KB)
MMALT FIVE (RNAV) **NEW**   download (190KB)
STRYA SEVEN (RNAV) **NEW**   download (163KB)
STYCK SEVEN (RNAV) **NEW**   download (150KB)
WATFO FIVE (RNAV) **NEW**   download (136KB)
WYLSN SEVEN (RNAV) **NEW**   download (138KB)
NOTE: Special Take-Off Minimums/Departure Procedures apply   download (70KB)

Other nearby airports with instrument procedures:

54T - RWJ Airpark (10 nm W)
KHPY - Baytown Airport (15 nm W)
T78 - Liberty Municipal Airport (19 nm N)
T41 - La Porte Municipal Airport (22 nm W)
KEFD - Ellington Airport (28 nm W)
 
Loc | Ops | Rwys | IFR | FBO | Links
Com | Nav | Svcs | Stats | Notes
Area around T00 (Chambers County Airport)
 
Road maps at: MapQuest Bing Google
 
Aerial photo
WARNING: Photo may not be current or correct
Aerial photo of T00 (Chambers County Airport)
Photo taken 04-Mar-2007
on final for runway 30

Do you have a better or more recent aerial photo of Chambers County Airport that you would like to share? If so, please send us your photo.

 
Sectional chart

 
Airport distance calculator
Flying to Chambers County Airport? Find the distance to fly.

From to T00

Sunrise and sunset
Times for 16-Jun-2019
 Local
(UTC-5)
 Zulu
(UTC)
Morning civil twilight05:5110:51
Sunrise06:1911:19
Sunset20:2001:20
Evening civil twilight20:4701:47

Current date and time
Zulu (UTC)  16-Jun-2019 05:47:50
Local (UTC-5)  16-Jun-2019 00:47:50
 
METAR
KEFD 
28nm W 
160450Z 15010KT 10SM FEW030 FEW250 28/23 A2991
KBMT 
29nm NE 
160535Z AUTO 16005KT 10SM SCT024 SCT038 SCT044 27/24 A2994 RMK AO2 T02700237
KGLS 
32nm S 
160452Z AUTO 17019KT 10SM CLR 27/23 A2995 RMK AO2 PK WND 17026/0440 SLP140 T02670233
KHOU 
33nm W 
160453Z 16009KT 10SM FEW250 28/24 A2992 RMK AO2 SLP136 T02780239
KLVJ 
34nm SW 
160453Z AUTO 16007KT 10SM CLR 28/24 A2994 RMK AO2 SLP138 T02830239
KBPT 
35nm E 
160453Z AUTO 16010KT 10SM CLR 28/23 A2995 RMK AO2 SLP141 T02830233
KXIH 
36nm S 
160535Z AUTO 18016G26KT 10SM BKN021 BKN032 BKN043 29/25 A2994 RMK A01
KIAH 
39nm W 
160453Z 17010KT 10SM FEW024 SCT200 28/25 A2993 RMK AO2 SLP132 T02830250
K6R3 
39nm NW 
160535Z AUTO 16003KT 7SM SCT024 25/25 A2993 RMK AO2 T02500250
KAXH 
45nm W 
160535Z AUTO 16005KT 10SM CLR 26/24 A2993 RMK AO2 T02620240
TAF
KEFD 
28nm W 
160400Z 1604/1710 16009KT 9999 SCT020 QNH2988INS BECMG 1614/1615 18015G20KT 9999 FEW065 QNH2988INS BECMG 1623/1624 16015G20KT 9999 BKN025 QNH2986INS BECMG 1705/1706 16009KT 8000 BR SCT015 QNH2988INS BECMG 1708/1709 16009KT 8000 -SHRA BKN015 QNH2987INS TX31/1617Z TN24/1610Z
KGLS 
32nm S 
160246Z 1603/1624 16017KT P6SM VCSH BKN022 BKN029 FM160500 17015G22KT P6SM SCT020 BKN250 FM161300 18018G26KT P6SM VCSH SCT010 BKN060 FM161500 17017KT P6SM VCSH SCT012 BKN028 FM161700 17017KT P6SM VCSH SCT018 BKN035
KHOU 
33nm W 
160248Z 1603/1624 18011KT P6SM FEW035 FEW250 FM160900 17007KT P6SM SCT025 TEMPO 1609/1612 BKN025 FM161300 17011KT P6SM VCSH SCT025 BKN250 FM161500 17012G18KT P6SM VCTS BKN040CB BKN250 PROB30 1615/1619 17010G20KT 5SM +SHRA BKN030 FM162000 18011G18KT P6SM SCT045
KBPT 
35nm E 
151720Z 1518/1618 19012KT P6SM VCTS BKN040CB TEMPO 1518/1521 OVC030CB FM152100 19013KT P6SM SCT250 FM160500 17009KT P6SM BKN013 FM160600 17009KT P6SM SCT011 PROB30 1612/1614 4SM -SHRA BKN035
NOTAMs
Click for the latest NOTAMs
NOTAMs are issued by the DoD/FAA and will open in a separate window not controlled by AirNav.

 

 
 

FBO, Fuel Providers, and Aircraft Ground Support

  
 Business Name 
 
 Contact 
 
 Services / Description 
 
Fuel Prices
 
Comments
  
Chambers County Anahuac Airport 409-267-2719
no information available

If you are affiliated with Chambers County Anahuac Airport and would like to show here your services, contact info, web link, logo, and more, click here
100LL Jet A
SS $4.00 $3.40 
 Updated 11-Jun-2019
 
   2 read write
SS=Self service
Update Fuel Prices
 

Would you like to see your business listed on this page?

 If your business provides an interesting product or service to pilots, flight crews, aircraft, or users of the Chambers County Airport, you should consider listing it here.  To start the listing process, click on the button below
 
Add a business
 

Other Pages about Chambers County Airport

www.co.chambers.tx.us/...
 
Update a link
 
Copyright © AirNav, LLC. All rights reserved. Privacy Policy  Contact